Time;durP1;ratioP1;P1;durP2;ratioP2;P2;SDS_P1;SDS_P2;PMS_P1;PMS_P2;Temp;Humidity;BMP_temperature;BMP_pressure;BME280_temperature;BME280_humidity;BME280_pressure;Samples;Min_cycle;Max_cycle;Signal;HPM_P1;HPM_P2
2021/11/01 00:01:08;;;;;;;0.70;0.37;;;14.80;99.90;;;;;;5055704;28;20635;-66
2021/11/01 00:03:35;;;;;;;0.70;0.43;;;14.80;99.90;;;;;;5054738;28;21059;-66
2021/11/01 00:06:02;;;;;;;0.60;0.40;;;14.80;99.90;;;;;;5054101;28;20846;-66
2021/11/01 00:08:29;;;;;;;0.60;0.40;;;14.80;99.90;;;;;;5054021;28;20443;-66
2021/11/01 00:10:56;;;;;;;0.60;0.40;;;14.80;99.90;;;;;;5053941;28;20494;-66
2021/11/01 00:13:24;;;;;;;0.70;0.50;;;14.80;99.90;;;;;;5053438;28;20948;-66
2021/11/01 00:15:52;;;;;;;0.90;0.60;;;14.80;99.90;;;;;;5052647;28;20455;-66
2021/11/01 00:18:19;;;;;;;1.00;0.70;;;14.80;99.90;;;;;;5053887;28;20451;-66
2021/11/01 00:20:46;;;;;;;1.20;0.40;;;14.80;99.90;;;;;;5051917;28;20552;-66
2021/11/01 00:23:13;;;;;;;0.87;0.50;;;14.60;99.90;;;;;;5052287;28;20534;-66
2021/11/01 00:25:40;;;;;;;0.70;0.50;;;14.70;99.90;;;;;;5050707;28;20491;-66
2021/11/01 00:28:10;;;;;;;1.63;0.50;;;14.70;99.90;;;;;;5052839;28;20479;-66
2021/11/01 00:30:39;;;;;;;0.50;0.37;;;14.80;99.90;;;;;;5053716;28;20797;-66
2021/11/01 00:33:06;;;;;;;3.20;0.47;;;14.80;99.90;;;;;;5053641;28;20496;-66
2021/11/01 00:35:33;;;;;;;0.57;0.30;;;14.90;99.90;;;;;;5053069;28;20455;-66
2021/11/01 00:38:00;;;;;;;0.40;0.30;;;15.00;99.90;;;;;;5053595;28;20508;-66
2021/11/01 00:40:27;;;;;;;0.50;0.30;;;15.20;99.90;;;;;;5053353;28;20591;-66
2021/11/01 00:42:54;;;;;;;0.37;0.20;;;15.40;99.90;;;;;;5054285;28;20447;-65
2021/11/01 00:45:21;;;;;;;0.40;0.30;;;15.60;99.90;;;;;;5053902;28;20513;-66
2021/11/01 00:47:49;;;;;;;0.50;0.20;;;15.80;99.90;;;;;;5053970;28;20483;-66
2021/11/01 00:50:17;;;;;;;0.50;0.20;;;15.90;99.90;;;;;;5054561;28;20520;-66
2021/11/01 00:52:44;;;;;;;0.43;0.20;;;15.90;99.90;;;;;;5055421;28;20451;-65
2021/11/01 00:55:20;;;;;;;0.40;0.20;;;15.90;99.90;;;;;;5055124;28;20808;-66
2021/11/01 00:57:47;;;;;;;0.50;0.30;;;16.00;99.90;;;;;;5054743;28;20925;-66
2021/11/01 01:00:14;;;;;;;0.30;0.20;;;16.00;99.90;;;;;;5054337;28;20518;-66
2021/11/01 01:02:42;;;;;;;0.50;0.27;;;16.00;99.90;;;;;;5055374;28;20482;-66
2021/11/01 01:05:10;;;;;;;0.40;0.30;;;16.00;99.90;;;;;;5058880;28;20941;-65
2021/11/01 01:07:37;;;;;;;0.40;0.20;;;16.00;99.90;;;;;;5058708;28;20526;-65
2021/11/01 01:10:05;;;;;;;0.30;0.20;;;16.10;99.90;;;;;;5058836;28;20922;-65
2021/11/01 01:12:34;;;;;;;0.50;0.20;;;16.10;99.90;;;;;;5059216;28;20447;-66
2021/11/01 01:15:03;;;;;;;0.40;0.20;;;16.20;99.90;;;;;;5058449;28;20516;-65
2021/11/01 01:17:31;;;;;;;0.37;0.20;;;16.20;99.90;;;;;;5059190;28;20447;-65
2021/11/01 01:20:04;;;;;;;0.33;0.20;;;16.20;99.90;;;;;;5058795;28;20487;-66
2021/11/01 01:22:34;;;;;;;0.30;0.20;;;16.20;99.90;;;;;;5058299;28;20497;-66
2021/11/01 01:25:13;;;;;;;0.30;0.20;;;16.30;99.90;;;;;;5056298;28;20463;-66
2021/11/01 01:27:41;;;;;;;0.40;0.20;;;16.20;99.90;;;;;;5058081;28;20447;-66
2021/11/01 01:30:10;;;;;;;0.50;0.20;;;16.20;99.90;;;;;;5058196;28;20554;-65
2021/11/01 01:32:37;;;;;;;0.40;0.13;;;16.20;99.90;;;;;;5057684;28;20827;-66
2021/11/01 01:35:04;;;;;;;0.40;0.20;;;16.20;99.90;;;;;;5057308;28;20520;-66
2021/11/01 01:37:33;;;;;;;0.50;0.20;;;16.20;99.90;;;;;;5058101;28;20523;-65
2021/11/01 01:40:00;;;;;;;0.30;0.10;;;16.30;99.90;;;;;;5058067;28;20490;-66
2021/11/01 01:42:27;;;;;;;0.40;0.20;;;16.30;99.90;;;;;;5056837;28;20898;-66
2021/11/01 01:44:54;;;;;;;0.40;0.30;;;16.20;99.90;;;;;;5057104;28;20537;-66
2021/11/01 01:47:21;;;;;;;0.40;0.20;;;16.20;99.90;;;;;;5056907;28;20823;-66
2021/11/01 01:49:48;;;;;;;0.30;0.20;;;16.20;99.90;;;;;;5056942;28;20486;-65
2021/11/01 01:52:16;;;;;;;0.60;0.37;;;16.20;99.90;;;;;;5057569;28;20481;-65
2021/11/01 01:54:45;;;;;;;0.30;0.20;;;16.10;99.90;;;;;;5058001;28;20451;-65
2021/11/01 01:57:11;;;;;;;0.30;0.30;;;15.90;99.90;;;;;;5057900;28;20816;-66
2021/11/01 01:59:39;;;;;;;0.60;0.30;;;15.90;99.90;;;;;;5058154;28;20479;-65
2021/11/01 02:02:06;;;;;;;0.50;0.30;;;15.70;99.90;;;;;;5058050;28;20893;-66
2021/11/01 02:04:35;;;;;;;0.40;0.20;;;15.60;99.90;;;;;;5057679;28;20475;-66
2021/11/01 02:07:14;;;;;;;0.50;0.30;;;15.40;99.90;;;;;;5057993;28;20502;-66
2021/11/01 02:09:50;;;;;;;0.43;0.20;;;15.00;99.90;;;;;;5057981;28;20490;-65
2021/11/01 02:12:21;;;;;;;0.30;0.10;;;15.00;99.90;;;;;;5058137;28;20766;-65
2021/11/01 02:14:54;;;;;;;0.70;0.20;;;14.90;99.90;;;;;;5056885;28;20501;-65
2021/11/01 02:17:25;;;;;;;1.80;0.20;;;14.80;99.90;;;;;;5057622;28;20513;-65
2021/11/01 02:19:56;;;;;;;0.33;0.10;;;14.80;99.90;;;;;;5057719;28;20582;-65
2021/11/01 02:22:34;;;;;;;0.30;0.10;;;14.60;99.90;;;;;;5057827;28;20540;-65
2021/11/01 02:25:06;;;;;;;0.30;0.10;;;14.60;99.90;;;;;;5054910;28;20547;-65
2021/11/01 02:27:38;;;;;;;0.30;0.10;;;14.40;99.90;;;;;;5057330;28;20483;-65
2021/11/01 02:30:07;;;;;;;0.93;0.17;;;14.40;99.90;;;;;;5057268;28;20550;-66
2021/11/01 02:32:36;;;;;;;0.40;0.20;;;14.20;99.90;;;;;;5057487;28;20451;-65
2021/11/01 02:35:04;;;;;;;0.30;0.10;;;14.10;99.90;;;;;;5057002;28;20490;-64
2021/11/01 02:37:31;;;;;;;0.30;0.10;;;14.10;99.90;;;;;;5057140;28;20452;-64
2021/11/01 02:39:58;;;;;;;0.30;0.10;;;14.00;99.90;;;;;;5056090;28;20494;-64
2021/11/01 02:42:28;;;;;;;0.50;0.10;;;14.00;99.90;;;;;;5056819;28;20490;-65
2021/11/01 02:44:59;;;;;;;0.63;0.10;;;13.90;99.90;;;;;;5056530;28;20487;-65
2021/11/01 02:47:27;;;;;;;0.30;0.10;;;13.80;99.90;;;;;;5057600;28;20525;-65
2021/11/01 02:49:54;;;;;;;0.40;0.10;;;13.70;99.90;;;;;;5056224;28;20459;-64
2021/11/01 02:52:21;;;;;;;2.00;0.10;;;13.70;99.90;;;;;;5055982;28;20529;-64
2021/11/01 02:54:49;;;;;;;0.80;0.10;;;13.50;99.90;;;;;;5055277;28;20821;-64
2021/11/01 02:57:16;;;;;;;0.30;0.10;;;13.60;99.90;;;;;;5055964;28;20447;-65
2021/11/01 02:59:44;;;;;;;0.30;0.10;;;13.60;99.90;;;;;;5056022;28;20498;-64
2021/11/01 03:02:13;;;;;;;2.23;0.10;;;13.40;99.90;;;;;;5056107;28;20467;-63
2021/11/01 03:04:40;;;;;;;1.07;0.10;;;13.40;99.90;;;;;;5055368;28;20509;-62
2021/11/01 03:07:07;;;;;;;0.30;0.10;;;13.40;99.90;;;;;;5055192;28;20566;-62
2021/11/01 03:09:37;;;;;;;0.47;0.10;;;13.20;99.90;;;;;;5055221;28;20443;-63
2021/11/01 03:12:07;;;;;;;1.47;0.10;;;13.40;99.90;;;;;;5055258;28;20498;-64
2021/11/01 03:14:45;;;;;;;1.53;0.17;;;13.30;99.90;;;;;;5055075;28;21083;-64
2021/11/01 03:17:18;;;;;;;0.40;0.20;;;13.40;99.90;;;;;;5055929;28;20447;-62
2021/11/01 03:19:50;;;;;;;0.37;0.10;;;13.40;99.90;;;;;;5056422;28;20537;-62
2021/11/01 03:22:18;;;;;;;0.60;0.10;;;13.30;99.90;;;;;;5056586;28;20842;-62
2021/11/01 03:24:57;;;;;;;0.30;0.10;;;13.10;99.90;;;;;;5054400;28;20816;-62
2021/11/01 03:27:25;;;;;;;0.93;0.10;;;12.90;99.90;;;;;;5055101;28;20878;-62
2021/11/01 03:29:53;;;;;;;0.30;0.10;;;12.80;99.90;;;;;;5054892;28;20926;-61
2021/11/01 03:32:23;;;;;;;0.40;0.10;;;12.70;99.90;;;;;;5053528;28;20542;-61
2021/11/01 03:34:51;;;;;;;0.20;0.10;;;12.60;99.90;;;;;;5054923;28;20518;-60
2021/11/01 03:37:19;;;;;;;0.40;0.10;;;12.70;99.90;;;;;;5054730;28;20470;-59
2021/11/01 03:39:48;;;;;;;1.07;0.10;;;12.80;99.90;;;;;;5054209;28;20479;-60
2021/11/01 03:42:16;;;;;;;0.30;0.10;;;12.90;99.90;;;;;;5054959;28;20479;-59
2021/11/01 03:44:47;;;;;;;0.43;0.20;;;12.80;99.90;;;;;;5056006;28;20798;-59
2021/11/01 03:47:15;;;;;;;1.23;0.10;;;12.70;99.90;;;;;;5056203;28;20447;-60
2021/11/01 03:49:51;;;;;;;0.83;0.13;;;12.50;99.90;;;;;;5055929;28;20512;-59
2021/11/01 03:52:22;;;;;;;0.50;0.20;;;12.40;99.90;;;;;;5055609;28;20447;-60
2021/11/01 03:54:50;;;;;;;0.30;0.10;;;12.40;99.90;;;;;;5055409;28;20467;-60
2021/11/01 03:57:18;;;;;;;0.33;0.10;;;12.40;99.90;;;;;;5055728;28;20494;-59
2021/11/01 03:59:46;;;;;;;0.70;0.20;;;12.30;99.90;;;;;;5055041;28;20534;-60
2021/11/01 04:02:15;;;;;;;1.03;0.20;;;12.30;99.90;;;;;;5055392;28;20527;-60
2021/11/01 04:04:46;;;;;;;0.50;0.10;;;12.40;99.90;;;;;;5055305;28;20508;-59
2021/11/01 04:07:13;;;;;;;0.70;0.20;;;12.30;99.90;;;;;;5053703;28;20766;-59
2021/11/01 04:09:40;;;;;;;0.40;0.10;;;12.40;99.90;;;;;;5053369;28;20790;-59
2021/11/01 04:12:09;;;;;;;0.37;0.10;;;12.20;99.90;;;;;;5052947;28;20937;-59
2021/11/01 04:14:40;;;;;;;0.30;0.10;;;12.00;99.90;;;;;;5052686;28;20914;-60
2021/11/01 04:17:12;;;;;;;1.07;0.10;;;11.90;99.90;;;;;;5052933;28;20455;-59
2021/11/01 04:19:54;;;;;;;0.30;0.10;;;11.80;99.90;;;;;;5052598;28;20754;-58
2021/11/01 04:22:22;;;;;;;0.30;0.10;;;11.90;99.90;;;;;;5054450;28;20529;-58
2021/11/01 04:24:50;;;;;;;0.30;0.10;;;11.80;99.90;;;;;;5053200;28;20446;-58
2021/11/01 04:27:17;;;;;;;0.30;0.10;;;11.70;99.90;;;;;;5055837;28;20964;-60
2021/11/01 04:29:44;;;;;;;2.97;0.10;;;11.60;99.90;;;;;;5055484;28;20443;-61
2021/11/01 04:32:21;;;;;;;0.30;0.10;;;11.50;99.90;;;;;;5055731;28;20444;-60
2021/11/01 04:34:53;;;;;;;0.60;0.20;;;11.40;99.90;;;;;;5055911;28;20470;-60
2021/11/01 04:37:22;;;;;;;0.70;0.10;;;11.30;99.90;;;;;;5055512;28;20451;-60
2021/11/01 04:40:04;;;;;;;0.33;0.10;;;11.20;99.90;;;;;;5059613;28;20530;-59
2021/11/01 04:42:58;;;;;;;0.50;0.10;;;11.10;99.90;;;;;;5060096;28;20489;-60
2021/11/01 04:53:40;;;;;;;0.40;0.10;;;11.10;99.90;;;;;;5059562;28;20418;-61
2021/11/01 04:56:07;;;;;;;0.40;0.10;;;11.10;99.90;;;;;;5059375;28;20496;-60
2021/11/01 04:58:35;;;;;;;0.63;0.10;;;11.20;99.90;;;;;;5059413;28;20761;-60
2021/11/01 05:01:03;;;;;;;0.30;0.20;;;11.30;99.90;;;;;;5059519;28;20534;-60
2021/11/01 05:03:36;;;;;;;0.30;0.13;;;11.50;99.90;;;;;;5060022;28;20883;-60
2021/11/01 05:06:04;;;;;;;0.30;0.10;;;11.60;99.90;;;;;;5059488;28;20577;-60
2021/11/01 05:08:39;;;;;;;0.30;0.20;;;11.50;99.90;;;;;;5059489;28;20454;-60
2021/11/01 05:11:15;;;;;;;0.70;0.20;;;11.50;99.90;;;;;;5059352;28;20548;-61
2021/11/01 05:13:42;;;;;;;2.87;0.20;;;11.50;99.90;;;;;;5058935;28;20736;-60
2021/11/01 05:16:14;;;;;;;0.30;0.10;;;11.60;99.90;;;;;;5058894;28;20512;-60
2021/11/01 05:18:46;;;;;;;0.30;0.20;;;11.60;99.90;;;;;;5058369;28;20501;-59
2021/11/01 05:21:31;;;;;;;2.30;0.10;;;11.60;99.90;;;;;;5058073;28;20586;-59
2021/11/01 05:24:01;;;;;;;0.40;0.10;;;11.50;99.90;;;;;;5058177;28;20509;-60
2021/11/01 05:26:50;;;;;;;0.37;0.10;;;11.40;99.90;;;;;;5055817;28;20465;-58
2021/11/01 05:29:17;;;;;;;1.07;0.20;;;11.30;99.90;;;;;;5056674;28;20894;-61
2021/11/01 05:31:47;;;;;;;0.40;0.20;;;11.20;99.90;;;;;;5055874;28;20455;-61
2021/11/01 05:34:17;;;;;;;0.37;0.10;;;11.20;99.90;;;;;;5058089;28;20471;-59
2021/11/01 05:36:44;;;;;;;1.13;0.20;;;11.20;99.90;;;;;;5058776;28;20537;-61
2021/11/01 05:39:12;;;;;;;0.30;0.10;;;11.30;99.90;;;;;;5058557;28;20508;-59
2021/11/01 05:41:40;;;;;;;0.60;0.20;;;11.30;99.90;;;;;;5058266;28;20487;-58
2021/11/01 05:44:09;;;;;;;0.83;0.10;;;11.30;99.90;;;;;;5064560;28;20446;-59
2021/11/01 05:46:38;;;;;;;1.27;0.20;;;11.30;99.90;;;;;;5078529;28;20508;-59
2021/11/01 05:49:07;;;;;;;0.53;0.20;;;11.40;99.90;;;;;;5077418;28;20771;-59
2021/11/01 05:51:34;;;;;;;0.87;0.20;;;11.20;99.90;;;;;;5076595;28;20739;-63
2021/11/01 05:54:05;;;;;;;1.03;0.20;;;11.20;99.90;;;;;;5060289;28;20454;-60
2021/11/01 05:56:42;;;;;;;0.80;0.20;;;11.20;99.90;;;;;;5058506;28;20489;-59
2021/11/01 05:59:34;;;;;;;0.40;0.23;;;11.20;99.90;;;;;;5058055;28;20451;-60
2021/11/01 06:02:34;;;;;;;1.03;0.20;;;11.30;99.90;;;;;;5058496;28;20953;-60
2021/11/01 06:05:10;;;;;;;0.50;0.20;;;11.30;99.90;;;;;;5057997;28;20462;-60
2021/11/01 06:07:43;;;;;;;0.70;0.20;;;11.30;99.90;;;;;;5057808;28;20490;-60
2021/11/01 06:10:13;;;;;;;0.60;0.20;;;11.20;99.90;;;;;;5057166;28;20784;-60
2021/11/01 06:15:27;;;;;;;0.30;0.10;;;11.40;99.90;;;;;;5058244;28;20455;-60
2021/11/01 06:17:54;;;;;;;0.87;0.10;;;11.30;99.90;;;;;;5057641;28;20451;-60
2021/11/01 06:20:22;;;;;;;0.50;0.20;;;11.40;99.90;;;;;;5058063;28;20820;-61
2021/11/01 06:22:49;;;;;;;0.30;0.10;;;11.50;99.90;;;;;;5074177;28;20483;-60
2021/11/01 06:25:18;;;;;;;0.40;0.10;;;11.40;99.90;;;;;;5075611;28;20516;-60
2021/11/01 06:27:47;;;;;;;0.30;0.10;;;11.30;99.90;;;;;;5077584;28;20450;-60
2021/11/01 06:30:22;;;;;;;0.30;0.10;;;11.20;99.90;;;;;;5077804;28;20501;-61
2021/11/01 06:33:09;;;;;;;0.83;0.20;;;11.10;99.90;;;;;;5078015;28;20450;-61
2021/11/01 06:41:42;;;;;;;0.40;0.20;;;10.90;99.90;;;;;;5077170;28;20430;-61
2021/11/01 06:49:48;;;;;;;0.40;0.20;;;10.80;99.90;;;;;;5076980;28;20414;-61
2021/11/01 06:57:59;;;;;;;1.30;0.10;;;10.60;99.90;;;;;;5046194;28;20418;-61
2021/11/01 07:14:27;;;;;;;0.57;0.10;;;10.40;99.90;;;;;;5076415;28;20525;-62
2021/11/01 07:16:57;;;;;;;0.93;0.17;;;10.40;99.90;;;;;;5076667;28;20508;-61
2021/11/01 07:19:35;;;;;;;0.30;0.10;;;10.40;99.90;;;;;;5076362;28;20446;-63
2021/11/01 08:42:37;;;;;;;0.33;0.13;;;10.60;99.90;;;;;;5048645;28;20471;-62
2021/11/01 08:45:29;;;;;;;0.50;0.20;;;10.60;99.90;;;;;;5075865;28;20794;-63
2021/11/01 08:48:27;;;;;;;0.43;0.20;;;10.70;99.90;;;;;;5075627;28;20451;-63
2021/11/01 09:07:59;;;;;;;0.30;0.10;;;10.50;99.90;;;;;;5074470;28;20457;-63
2021/11/01 09:10:54;;;;;;;0.40;0.20;;;10.50;99.90;;;;;;5074274;28;20450;-63
2021/11/01 09:19:05;;;;;;;0.30;0.10;;;10.70;99.90;;;;;;5074430;28;20426;-62
2021/11/01 09:21:39;;;;;;;0.50;0.20;;;10.60;99.90;;;;;;5074740;28;20496;-62
2021/11/01 09:26:52;;;;;;;0.30;0.10;;;10.50;99.90;;;;;;5076865;28;20437;-64
2021/11/01 09:29:27;;;;;;;0.30;0.17;;;10.50;99.90;;;;;;5078263;28;20808;-64
2021/11/01 09:42:56;;;;;;;0.90;0.17;;;10.90;99.90;;;;;;5076370;28;20544;-64
2021/11/01 09:45:25;;;;;;;0.30;0.20;;;11.00;99.90;;;;;;5076217;28;20975;-64
2021/11/01 09:47:53;;;;;;;0.60;0.20;;;11.10;99.90;;;;;;5076314;28;20442;-64
2021/11/01 09:50:24;;;;;;;0.30;0.20;;;11.00;99.90;;;;;;5077038;28;20462;-64
2021/11/01 09:52:57;;;;;;;0.63;0.20;;;10.90;99.90;;;;;;5076555;28;20803;-64
2021/11/01 09:55:46;;;;;;;0.30;0.17;;;11.00;99.90;;;;;;5076675;28;20497;-65
2021/11/01 10:00:59;;;;;;;0.30;0.10;;;10.80;99.90;;;;;;5074987;28;20588;-66
2021/11/01 10:03:33;;;;;;;0.40;0.20;;;10.90;99.90;;;;;;5075253;28;20474;-64
2021/11/01 10:06:02;;;;;;;0.50;0.10;;;11.10;99.90;;;;;;5075353;28;20485;-65
2021/11/01 10:08:31;;;;;;;1.57;0.30;;;11.20;99.90;;;;;;5075459;28;20447;-65
2021/11/01 10:10:58;;;;;;;0.30;0.20;;;11.30;99.90;;;;;;5075497;28;20882;-65
2021/11/01 10:13:27;;;;;;;0.40;0.20;;;11.20;99.90;;;;;;5075855;28;20814;-65
2021/11/01 10:18:45;;;;;;;1.00;0.10;;;10.90;99.90;;;;;;5076434;28;20421;-66
2021/11/01 10:21:17;;;;;;;0.30;0.17;;;10.80;99.90;;;;;;5077126;28;20462;-65
2021/11/01 10:23:50;;;;;;;1.10;0.17;;;10.90;99.90;;;;;;5075921;28;20483;-65
2021/11/01 10:26:19;;;;;;;0.33;0.20;;;10.90;99.90;;;;;;5074625;28;20446;-65
2021/11/01 10:28:49;;;;;;;0.60;0.10;;;10.80;99.90;;;;;;5075676;28;20508;-65
2021/11/01 10:31:21;;;;;;;6.67;0.20;;;11.00;99.90;;;;;;5074686;28;20461;-65
2021/11/01 10:33:49;;;;;;;0.50;0.10;;;11.20;99.90;;;;;;5075793;28;20451;-65
2021/11/01 10:36:29;;;;;;;1.20;0.30;;;11.40;99.90;;;;;;5074980;28;20599;-65
2021/11/01 10:38:59;;;;;;;0.30;0.10;;;11.30;99.90;;;;;;5076009;28;20529;-66
2021/11/01 10:41:32;;;;;;;1.30;0.10;;;11.20;99.90;;;;;;5075374;28;20451;-66
2021/11/01 10:44:18;;;;;;;0.30;0.10;;;11.40;99.90;;;;;;5075309;28;20746;-66
2021/11/01 11:11:57;;;;;;;4.30;0.10;;;11.40;99.90;;;;;;5075803;28;20430;-66
2021/11/01 11:14:29;;;;;;;0.40;0.20;;;11.40;99.90;;;;;;5074315;28;20453;-66
2021/11/01 11:49:10;;;;;;;0.40;0.20;;;11.70;99.90;;;;;;5063885;28;20433;-66
2021/11/01 11:51:39;;;;;;;0.30;0.10;;;11.80;99.90;;;;;;5073594;28;20812;-66
2021/11/01 11:54:08;;;;;;;0.53;0.20;;;11.70;99.90;;;;;;5073549;28;20536;-66
2021/11/01 11:56:37;;;;;;;0.30;0.20;;;11.50;99.90;;;;;;5074303;28;20556;-65
2021/11/01 11:59:10;;;;;;;0.30;0.10;;;11.50;99.90;;;;;;5073100;28;20438;-67
2021/11/01 12:01:41;;;;;;;0.30;0.20;;;11.70;99.90;;;;;;5073397;28;20489;-66
2021/11/01 12:04:24;;;;;;;0.37;0.20;;;11.70;99.90;;;;;;5073912;28;20514;-68
2021/11/01 12:07:00;;;;;;;0.47;0.20;;;11.70;99.90;;;;;;5072800;28;20482;-66
2021/11/01 12:09:30;;;;;;;0.40;0.20;;;11.70;99.90;;;;;;5073003;28;20796;-66
2021/11/01 12:12:21;;;;;;;0.40;0.20;;;11.70;99.90;;;;;;5073646;28;20540;-64
2021/11/01 12:17:35;;;;;;;0.33;0.20;;;11.60;99.90;;;;;;5075053;28;20418;-66
2021/11/01 12:20:11;;;;;;;1.03;0.30;;;11.50;99.90;;;;;;5075186;28;20729;-66
2021/11/01 12:22:44;;;;;;;0.50;0.30;;;11.50;99.90;;;;;;5075140;28;20551;-66
2021/11/01 12:25:16;;;;;;;0.30;0.10;;;11.50;99.90;;;;;;5073647;28;20510;-66
2021/11/01 12:27:56;;;;;;;0.40;0.20;;;11.60;99.90;;;;;;5075750;28;20442;-66
2021/11/01 12:30:33;;;;;;;0.40;0.20;;;11.50;99.90;;;;;;5075048;28;20450;-65
2021/11/01 12:33:01;;;;;;;1.30;0.33;;;11.50;99.90;;;;;;5073271;28;20454;-66
2021/11/01 12:35:30;;;;;;;0.50;0.20;;;11.50;99.90;;;;;;5074302;28;20458;-66
2021/11/01 12:38:04;;;;;;;0.30;0.20;;;11.40;99.90;;;;;;5073143;28;20450;-67
2021/11/01 12:40:40;;;;;;;0.60;0.20;;;11.40;99.90;;;;;;5074194;28;20512;-66
2021/11/01 12:43:23;;;;;;;0.60;0.20;;;11.40;99.90;;;;;;5075287;28;20576;-65
2021/11/01 12:46:16;;;;;;;0.50;0.20;;;11.30;99.90;;;;;;5075106;28;20486;-66
2021/11/01 12:57:24;;;;;;;0.40;0.20;;;11.30;99.90;;;;;;5073584;28;20732;-66
2021/11/01 12:59:51;;;;;;;0.50;0.30;;;11.30;99.90;;;;;;5075281;28;20809;-66
2021/11/01 13:02:32;;;;;;;0.50;0.30;;;11.40;99.90;;;;;;5077248;28;20813;-66
2021/11/01 13:05:02;;;;;;;0.40;0.20;;;11.40;99.90;;;;;;5077482;28;20462;-64
2021/11/01 13:07:47;;;;;;;0.50;0.20;;;11.40;99.90;;;;;;5076707;28;20560;-66
2021/11/01 13:10:21;;;;;;;0.50;0.20;;;11.50;99.90;;;;;;5078774;28;20462;-67
2021/11/01 13:13:22;;;;;;;0.30;0.10;;;11.50;99.90;;;;;;5078578;28;20450;-65
2021/11/01 13:18:36;;;;;;;0.33;0.20;;;11.50;99.90;;;;;;5076935;28;20426;-66
2021/11/01 13:21:18;;;;;;;2.57;0.30;;;11.70;99.90;;;;;;5076890;28;20462;-66
2021/11/01 13:23:53;;;;;;;0.60;0.27;;;11.60;99.90;;;;;;5070537;28;20478;-65
2021/11/01 13:26:36;;;;;;;0.30;0.13;;;11.60;99.90;;;;;;5056439;28;20820;-66
2021/11/01 13:29:17;;;;;;;0.40;0.20;;;11.50;99.90;;;;;;5057251;28;20458;-66
2021/11/01 13:34:49;;;;;;;0.40;0.20;;;11.50;99.90;;;;;;5057474;28;20893;-65
2021/11/01 13:37:21;;;;;;;0.40;0.20;;;11.40;99.90;;;;;;5056956;28;20467;-66
2021/11/01 13:40:00;;;;;;;0.50;0.20;;;11.40;99.90;;;;;;5056137;28;20565;-66
2021/11/01 13:42:27;;;;;;;0.50;0.20;;;11.40;99.90;;;;;;5056821;28;20454;-66
2021/11/01 13:45:05;;;;;;;0.80;0.43;;;11.50;99.90;;;;;;5056088;28;20454;-66
2021/11/01 13:47:41;;;;;;;2.53;0.30;;;11.40;99.90;;;;;;5056561;28;20770;-65
2021/11/01 13:50:22;;;;;;;1.00;0.40;;;11.50;99.90;;;;;;5055549;28;20565;-65
2021/11/01 13:52:58;;;;;;;1.10;0.30;;;11.40;99.90;;;;;;5057787;28;20766;-65
2021/11/01 13:55:35;;;;;;;0.47;0.30;;;11.50;99.90;;;;;;5057775;28;20505;-65
2021/11/01 13:58:07;;;;;;;1.97;0.40;;;11.50;99.90;;;;;;5057599;28;20450;-65
2021/11/01 14:00:45;;;;;;;0.50;0.30;;;11.50;99.90;;;;;;5056188;28;20462;-65
2021/11/01 14:12:04;;;;;;;1.83;0.20;;;11.80;99.90;;;;;;5035646;28;20530;-65
2021/11/01 14:14:44;;;;;;;2.90;0.30;;;12.10;99.90;;;;;;5057808;28;20439;-65
2021/11/01 14:17:33;;;;;;;0.60;0.40;;;12.20;99.90;;;;;;5057010;28;20454;-65
2021/11/01 14:20:25;;;;;;;0.70;0.30;;;12.20;99.90;;;;;;5055014;28;20820;-65
2021/11/01 14:28:32;;;;;;;0.40;0.20;;;12.30;99.90;;;;;;5055206;28;20465;-66
2021/11/01 14:57:01;;;;;;;1.70;0.30;;;12.40;99.90;;;;;;5053630;28;20435;-66
2021/11/01 15:13:58;;;;;;;0.90;0.20;;;11.90;99.90;;;;;;5073355;28;20419;-67
2021/11/01 15:16:36;;;;;;;0.40;0.20;;;12.00;99.90;;;;;;5073809;28;20454;-66
2021/11/01 15:19:25;;;;;;;0.60;0.30;;;12.00;99.90;;;;;;5074281;28;20744;-66
2021/11/01 15:22:08;;;;;;;1.30;0.27;;;11.90;99.90;;;;;;5073426;28;20830;-66
2021/11/01 15:25:09;;;;;;;0.50;0.30;;;11.90;99.90;;;;;;5068946;28;20484;-66
2021/11/01 15:36:13;;;;;;;0.70;0.33;;;11.80;99.90;;;;;;5076309;28;20426;-66
2021/11/01 15:38:52;;;;;;;0.90;0.30;;;11.70;99.90;;;;;;5075909;28;20453;-65
2021/11/01 16:17:47;;;;;;;1.73;0.30;;;11.40;99.90;;;;;;5055126;28;20414;-67
2021/11/01 16:20:17;;;;;;;0.40;0.20;;;11.30;99.90;;;;;;5054913;28;20463;-66
2021/11/01 16:22:44;;;;;;;0.40;0.23;;;11.30;99.90;;;;;;5053928;28;20447;-66
2021/11/01 16:25:11;;;;;;;0.53;0.30;;;11.40;99.90;;;;;;5051736;28;20553;-67
2021/11/01 16:27:45;;;;;;;1.50;0.33;;;11.50;99.90;;;;;;5060398;28;20799;-67
2021/11/01 16:30:18;;;;;;;0.57;0.30;;;11.50;99.90;;;;;;5073746;28;20571;-67
2021/11/01 16:32:47;;;;;;;0.60;0.47;;;11.60;99.90;;;;;;5074052;28;20545;-67
2021/11/01 16:35:21;;;;;;;3.17;0.53;;;11.80;99.90;;;;;;5070045;28;20762;-66
2021/11/01 16:38:00;;;;;;;1.90;0.30;;;11.80;99.90;;;;;;5074234;28;20458;-67
2021/11/01 16:40:27;;;;;;;0.63;0.40;;;11.70;99.90;;;;;;5074156;28;20802;-67
2021/11/01 16:42:56;;;;;;;1.80;0.50;;;11.60;99.90;;;;;;5073612;28;20504;-66
2021/11/01 16:45:25;;;;;;;0.60;0.40;;;11.50;99.90;;;;;;5073920;28;20486;-66
2021/11/01 16:47:53;;;;;;;1.00;0.40;;;11.60;99.90;;;;;;5073276;28;20551;-66
2021/11/01 16:50:21;;;;;;;1.10;0.50;;;11.60;99.90;;;;;;5055077;28;20459;-66
2021/11/01 16:52:50;;;;;;;0.63;0.40;;;11.70;99.90;;;;;;5054152;28;20494;-66
2021/11/01 16:55:20;;;;;;;0.70;0.40;;;11.60;99.90;;;;;;5056472;28;20910;-66
2021/11/01 16:57:52;;;;;;;0.67;0.40;;;11.60;99.90;;;;;;5073828;28;20455;-67
2021/11/01 17:00:30;;;;;;;3.03;0.40;;;11.60;99.90;;;;;;5073363;28;20458;-66
2021/11/01 17:03:19;;;;;;;1.00;0.70;;;11.70;99.90;;;;;;5072335;28;20453;-66
2021/11/01 17:05:58;;;;;;;1.03;0.63;;;11.60;99.90;;;;;;5072785;28;20450;-66
2021/11/01 17:22:24;;;;;;;0.90;0.50;;;11.50;99.90;;;;;;5053073;28;20479;-66
2021/11/01 17:24:58;;;;;;;1.30;0.70;;;11.30;99.90;;;;;;5051887;28;20517;-66
2021/11/01 17:28:11;;;;;;;1.77;0.67;;;11.20;99.90;;;;;;5053242;28;20447;-67
2021/11/01 17:36:47;;;;;;;1.30;0.60;;;11.20;99.90;;;;;;4974433;28;20502;-66
2021/11/01 18:40:45;;;;;;;1.33;0.73;;;10.50;99.90;;;;;;5036108;28;20432;-65
2021/11/01 18:43:25;;;;;;;1.07;0.60;;;10.40;99.90;;;;;;5036823;28;20924;-67
2021/11/01 18:51:50;;;;;;;1.00;0.43;;;10.50;99.90;;;;;;4993673;28;20442;-66
2021/11/01 18:54:28;;;;;;;1.13;0.50;;;10.40;99.90;;;;;;5031711;28;20467;-66
2021/11/01 18:57:07;;;;;;;2.60;0.43;;;10.40;99.90;;;;;;5053852;28;20913;-66
2021/11/01 18:59:50;;;;;;;0.77;0.50;;;10.30;99.90;;;;;;5055887;28;20439;-65
2021/11/01 19:02:39;;;;;;;0.67;0.50;;;10.20;99.90;;;;;;5054901;28;20462;-66
2021/11/01 19:05:11;;;;;;;1.17;0.50;;;10.10;99.90;;;;;;5056193;28;20522;-66
2021/11/01 19:07:45;;;;;;;0.80;0.50;;;10.00;99.90;;;;;;5056832;28;20483;-67
2021/11/01 20:06:57;;;;;;;1.00;0.50;;;8.70;99.90;;;;;;4985776;28;20700;-65
2021/11/01 20:12:40;;;;;;;1.20;0.50;;;8.60;99.90;;;;;;5015076;28;20448;-67
2021/11/01 21:25:01;;;;;;;0.47;0.27;;;8.50;99.90;;;;;;4995639;28;20789;-65
2021/11/01 21:27:29;;;;;;;0.50;0.30;;;8.50;99.90;;;;;;4995633;28;20545;-66
2021/11/01 21:29:56;;;;;;;0.73;0.30;;;8.50;99.90;;;;;;4997092;28;20458;-65
2021/11/01 21:32:25;;;;;;;0.87;0.40;;;8.50;99.90;;;;;;4996812;28;20517;-65
2021/11/01 21:34:58;;;;;;;0.50;0.40;;;8.40;99.90;;;;;;4995339;28;20452;-64
2021/11/01 21:37:26;;;;;;;0.50;0.30;;;8.30;99.90;;;;;;4997439;28;20450;-64
2021/11/01 21:39:53;;;;;;;0.40;0.20;;;8.30;99.90;;;;;;4997528;28;20939;-64
2021/11/01 21:42:22;;;;;;;0.70;0.30;;;8.30;99.90;;;;;;4996641;28;20480;-63
2021/11/01 21:44:50;;;;;;;2.20;0.30;;;8.30;99.90;;;;;;4996028;28;20481;-63
2021/11/01 21:47:17;;;;;;;1.63;0.23;;;8.20;99.90;;;;;;4996712;28;20529;-64
2021/11/01 21:49:46;;;;;;;2.80;0.40;;;8.20;99.90;;;;;;4997153;28;20516;-65
2021/11/01 21:52:14;;;;;;;0.53;0.30;;;8.20;99.90;;;;;;4997045;28;20496;-63
2021/11/01 21:54:45;;;;;;;0.87;0.40;;;8.20;99.90;;;;;;4996619;28;20460;-65
2021/11/01 21:57:14;;;;;;;3.90;0.60;;;8.20;99.90;;;;;;4996644;28;20528;-63
2021/11/01 22:19:25;;;;;;;1.63;0.30;;;8.20;99.90;;;;;;4998449;28;20432;-62
2021/11/01 22:22:00;;;;;;;0.40;0.23;;;8.20;99.90;;;;;;4998767;28;20450;-63
2021/11/01 22:24:31;;;;;;;0.50;0.30;;;8.20;99.90;;;;;;4998721;28;20547;-64
2021/11/01 22:32:32;;;;;;;1.83;0.30;;;8.30;99.90;;;;;;4997012;28;20421;-64
2021/11/01 22:40:35;;;;;;;0.97;0.30;;;8.40;99.90;;;;;;4996321;28;20517;-64
2021/11/01 22:43:08;;;;;;;1.97;0.30;;;8.50;99.90;;;;;;4998489;28;20806;-64
2021/11/01 22:45:43;;;;;;;0.60;0.30;;;8.50;99.90;;;;;;4997377;28;20486;-65
2021/11/01 22:48:25;;;;;;;0.40;0.20;;;8.60;99.90;;;;;;4997573;28;20450;-63
2021/11/01 22:56:31;;;;;;;0.70;0.37;;;8.90;99.90;;;;;;4996112;28;20493;-64
2021/11/01 22:59:00;;;;;;;0.40;0.20;;;8.90;99.90;;;;;;4995128;28;20460;-65
2021/11/01 23:01:36;;;;;;;0.73;0.30;;;8.90;99.90;;;;;;4995427;28;20751;-64
2021/11/01 23:04:11;;;;;;;0.40;0.30;;;8.90;99.90;;;;;;4995855;28;20515;-64
2021/11/01 23:06:54;;;;;;;0.60;0.30;;;8.80;99.90;;;;;;5016243;28;20483;-64